To NAV CANADA Home Page Login to a new session Search on AWWS site Disclaimer Vers la page française équivalente Tips FAQ What's new on the site To the Forecasts and Observations / NOTAM section To "File a Flight Plan" website Publications and other links Update of the User's profile FIC Telephone Numbers My Weather Data Folder Route Weather Data Regional Weather Data Local Weather Data To the Forecasts and Observations / NOTAM section
Request Generated 05/14/2021 at 07:55:58 UTC . Weather information available at that time is displayed.

METAR/TAF

GANDER INTL/NL    

METAR CYQX 140700Z 28006KT 15SM OVC015 04/02 A2975 RMK SC8 SLP080=
METAR CYQX 140600Z 29010G15KT 15SM OVC016 04/01 A2974 RMK SC8 SLP078=
METAR CYQX 140500Z 28008KT 15SM OVC017 04/01 A2974 RMK SC8 SLP077=

TAF CYQX 140538Z 1406/1506 28008KT P6SM OVC015 TEMPO 1406/1411 6SM
-RA BR SCT007 OVC012
FM141100 30012KT P6SM OVC012 TEMPO 1411/1414 BKN025
FM141400 32012G22KT P6SM -SHRA OVC020
FM142000 33012G22KT P6SM BKN030
FM142300 33010KT P6SM -RA OVC012
FM150200 32010KT 5SM -DZ -RA BR BKN007 OVC010
RMK NXT FCST BY 141200Z=
Your time UTC time
Weather data provided by Environment Canada and NAV CANADA